Boswell, Canada
Current Conditions -  °F | °C
As of 10:00 AM on Thursday 30 Oct 2014 (Local Time) from CYCG Reporting Station
Overcast Overcast  
Wind Chill: 48°   Ceiling: 6300
Heat Index: 48°   Visibility: 15mi
Dew Point: 45°   Wind: 2mph
Humidity: 87%   Direction: 40°NE
Pressure: 30.17"   Gusts: NA
Location:  49.47°N, 116.77°W
Report Text: CYCG 301700Z 04002KT 15SM FEW005 SCT020 BKN063 OVC110 09/07 A3017 RMK SF1SC3SC2AC2 SLP225
Loading
Personal Weather Stations






























Interactive Weather Map
Tropical Storm Tracking
New forecast layout! Learn more

10-Day Weather Forecast

Advertisements
Track Severe Weather on mobile